createdAt,value
2024-04-24T00:00:43.940Z,64.58
2024-04-24T00:01:43.996Z,64.66
2024-04-24T00:02:43.950Z,64.63
2024-04-24T00:03:44.036Z,64.40
2024-04-24T00:04:43.930Z,64.01
2024-04-24T00:05:43.932Z,63.74
2024-04-24T00:06:43.932Z,63.78
2024-04-24T00:07:43.979Z,63.51
2024-04-24T00:08:43.944Z,63.44
2024-04-24T00:09:43.953Z,63.67
2024-04-24T00:10:43.993Z,63.27
2024-04-24T00:11:44.098Z,63.53
2024-04-24T00:12:43.944Z,64.75
2024-04-24T00:13:44.050Z,65.68
2024-04-24T00:14:44.064Z,66.21
2024-04-24T00:15:44.094Z,66.95
2024-04-24T00:16:44.185Z,67.14
2024-04-24T00:17:44.250Z,68.02
2024-04-24T00:18:44.383Z,67.73
2024-04-24T00:19:44.328Z,68.06
2024-04-24T00:20:44.366Z,68.08
2024-04-24T00:21:44.390Z,67.93
2024-04-24T00:22:44.517Z,68.16
2024-04-24T00:23:44.503Z,68.74
2024-04-24T00:24:44.574Z,69.54
2024-04-24T00:25:44.627Z,69.78
2024-04-24T00:26:44.654Z,69.60
2024-04-24T00:27:44.737Z,69.10
2024-04-24T00:28:44.808Z,68.59
2024-04-24T00:29:44.829Z,68.68
2024-04-24T00:30:44.897Z,68.93
2024-04-24T00:31:44.947Z,68.80
2024-04-24T00:32:45.089Z,68.88
2024-04-24T00:33:45.121Z,68.67
2024-04-24T00:34:45.131Z,68.30
2024-04-24T00:35:45.147Z,68.01
2024-04-24T00:36:45.176Z,67.75
2024-04-24T00:37:45.265Z,67.33
2024-04-24T00:38:45.299Z,67.40
2024-04-24T00:39:45.331Z,67.46
2024-04-24T00:40:45.415Z,67.46
2024-04-24T00:41:45.439Z,67.48
2024-04-24T00:42:45.500Z,68.29
2024-04-24T00:43:45.559Z,67.55
2024-04-24T00:44:45.595Z,67.83
2024-04-24T00:45:47.980Z,68.09
2024-04-24T00:46:45.839Z,67.69
2024-04-24T00:47:45.967Z,67.59
2024-04-24T00:48:46.014Z,67.62
2024-04-24T00:49:45.936Z,67.86
2024-04-24T00:50:45.949Z,67.45
2024-04-24T00:51:45.988Z,67.76
2024-04-24T00:52:46.079Z,67.07
2024-04-24T00:53:46.065Z,67.17
2024-04-24T00:54:46.104Z,66.91
2024-04-24T00:55:46.191Z,66.61
2024-04-24T00:56:46.172Z,66.36
2024-04-24T00:57:46.234Z,66.06
2024-04-24T00:58:46.293Z,65.65
2024-04-24T00:59:46.345Z,65.62
2024-04-24T01:00:46.422Z,65.40
2024-04-24T01:01:46.540Z,65.97
2024-04-24T01:02:46.528Z,65.39
2024-04-24T01:03:46.532Z,65.99
2024-04-24T01:04:46.594Z,66.31
2024-04-24T01:05:46.557Z,65.96
2024-04-24T01:06:49.179Z,65.83
2024-04-24T01:07:46.588Z,65.72
2024-04-24T01:08:46.582Z,65.91
2024-04-24T01:09:46.586Z,66.94
2024-04-24T01:10:46.697Z,66.54
2024-04-24T01:11:46.770Z,67.49
2024-04-24T01:12:46.606Z,67.62
2024-04-24T01:13:46.683Z,67.80
2024-04-24T01:14:46.600Z,68.15
2024-04-24T01:15:46.586Z,67.07
2024-04-24T01:16:46.655Z,66.89
2024-04-24T01:17:46.861Z,66.74
2024-04-24T01:18:46.646Z,66.58
2024-04-24T01:19:46.619Z,66.47
2024-04-24T01:20:46.606Z,66.54
2024-04-24T01:21:48.774Z,66.87
2024-04-24T01:22:46.657Z,67.16
2024-04-24T01:23:46.602Z,66.88
2024-04-24T01:24:46.619Z,67.01
2024-04-24T01:25:46.652Z,67.47
2024-04-24T01:26:46.612Z,67.10
2024-04-24T01:27:46.606Z,66.66
2024-04-24T01:28:46.680Z,66.91
2024-04-24T01:29:46.636Z,66.67
2024-04-24T01:30:46.605Z,66.62
2024-04-24T01:31:46.750Z,66.69
2024-04-24T01:32:46.730Z,66.82
2024-04-24T01:33:46.611Z,66.70
2024-04-24T01:34:56.689Z,67.44
2024-04-24T01:35:46.625Z,67.33
2024-04-24T01:36:46.633Z,67.22
2024-04-24T01:37:46.709Z,67.61
2024-04-24T01:38:46.618Z,68.12
2024-04-24T01:39:46.627Z,68.65
2024-04-24T01:40:46.643Z,68.37
2024-04-24T01:41:46.641Z,68.73
2024-04-24T01:42:46.622Z,69.32
2024-04-24T01:43:46.699Z,68.61
2024-04-24T01:44:46.629Z,68.58
2024-04-24T01:45:46.645Z,69.17
2024-04-24T01:46:46.664Z,70.01
2024-04-24T01:47:46.773Z,69.71
2024-04-24T01:48:46.723Z,69.29
2024-04-24T01:49:46.704Z,69.50
2024-04-24T01:50:46.639Z,69.33
2024-04-24T01:51:46.652Z,68.84
2024-04-24T01:52:46.645Z,68.96
2024-04-24T01:53:46.641Z,68.64
2024-04-24T01:54:46.638Z,68.42
2024-04-24T01:55:46.687Z,68.17
2024-04-24T01:56:46.650Z,68.10
2024-04-24T01:57:46.674Z,68.40
2024-04-24T01:58:46.681Z,68.13
2024-04-24T01:59:46.644Z,68.01
2024-04-24T02:00:46.710Z,67.74
2024-04-24T02:01:46.759Z,67.95
2024-04-24T02:02:46.808Z,67.82
2024-04-24T02:03:46.876Z,68.21
2024-04-24T02:04:46.897Z,68.14
2024-04-24T02:05:46.920Z,68.19
2024-04-24T02:06:47.019Z,67.65
2024-04-24T02:07:47.024Z,67.81
2024-04-24T02:08:47.069Z,66.91
2024-04-24T02:09:47.050Z,67.27
2024-04-24T02:10:47.118Z,67.15
2024-04-24T02:11:53.803Z,67.11
2024-04-24T02:12:48.161Z,66.33
2024-04-24T02:13:47.153Z,65.71
2024-04-24T02:14:47.102Z,66.20
2024-04-24T02:15:47.123Z,66.09
2024-04-24T02:16:48.027Z,65.85
2024-04-24T02:17:47.219Z,65.03
2024-04-24T02:18:47.186Z,65.16
2024-04-24T02:19:47.158Z,65.30
2024-04-24T02:20:47.108Z,65.92
2024-04-24T02:21:47.112Z,65.49
2024-04-24T02:22:47.139Z,66.02
2024-04-24T02:23:47.111Z,65.97
2024-04-24T02:24:47.111Z,66.15
2024-04-24T02:25:47.163Z,66.13
2024-04-24T02:26:47.122Z,65.91
2024-04-24T02:27:47.144Z,65.82
2024-04-24T02:28:47.263Z,65.75
2024-04-24T02:29:54.701Z,65.31
2024-04-24T02:30:48.155Z,65.72
2024-04-24T02:31:47.200Z,65.94
2024-04-24T02:32:47.352Z,66.45
2024-04-24T02:33:47.154Z,65.72
2024-04-24T02:34:47.163Z,66.50
2024-04-24T02:35:47.164Z,66.25
2024-04-24T02:36:47.161Z,66.05
2024-04-24T02:37:47.256Z,65.57
2024-04-24T02:38:47.157Z,65.99
2024-04-24T02:39:47.162Z,66.22
2024-04-24T02:40:47.171Z,66.46
2024-04-24T02:41:47.183Z,66.41
2024-04-24T02:42:47.169Z,66.32
2024-04-24T02:43:47.178Z,66.22
2024-04-24T02:44:47.300Z,66.36
2024-04-24T02:45:47.214Z,66.16
2024-04-24T02:46:47.186Z,66.27
2024-04-24T02:47:47.262Z,66.11
2024-04-24T02:48:47.274Z,66.43
2024-04-24T02:49:47.200Z,66.05
2024-04-24T02:50:47.197Z,65.82
2024-04-24T02:51:47.194Z,66.66
2024-04-24T02:52:47.228Z,66.14
2024-04-24T02:53:47.219Z,66.57
2024-04-24T02:54:47.247Z,66.24
2024-04-24T02:55:47.291Z,66.10
2024-04-24T02:56:49.944Z,65.96
2024-04-24T02:57:47.289Z,66.01
2024-04-24T02:58:47.306Z,65.72
2024-04-24T02:59:47.285Z,65.88
2024-04-24T03:00:47.358Z,65.40
2024-04-24T03:01:47.369Z,65.07
2024-04-24T03:02:47.503Z,65.27
2024-04-24T03:03:47.309Z,65.21
2024-04-24T03:04:47.300Z,65.75
2024-04-24T03:05:47.310Z,65.95
2024-04-24T03:06:47.295Z,65.49
2024-04-24T03:07:53.850Z,66.01
2024-04-24T03:08:47.295Z,65.88
2024-04-24T03:09:47.337Z,66.05
2024-04-24T03:10:47.339Z,65.41
2024-04-24T03:11:47.412Z,65.30
2024-04-24T03:12:47.296Z,65.50
2024-04-24T03:13:47.335Z,66.01
2024-04-24T03:14:47.290Z,65.82
2024-04-24T03:15:47.308Z,65.80
2024-04-24T03:16:47.385Z,65.86
2024-04-24T03:17:53.914Z,66.02
2024-04-24T03:18:47.316Z,66.29
2024-04-24T03:19:47.376Z,65.46
2024-04-24T03:20:47.317Z,65.15
2024-04-24T03:21:47.312Z,64.80
2024-04-24T03:22:47.378Z,64.32
2024-04-24T03:23:47.325Z,63.87
2024-04-24T03:24:47.314Z,64.18
2024-04-24T03:25:47.384Z,63.96
2024-04-24T03:26:47.315Z,64.48
2024-04-24T03:27:47.344Z,65.04
2024-04-24T03:28:47.333Z,64.63
2024-04-24T03:29:47.345Z,64.27
2024-04-24T03:30:47.322Z,64.61
2024-04-24T03:31:47.393Z,64.37
2024-04-24T03:33:08.496Z,64.81
2024-04-24T03:33:47.454Z,64.78
2024-04-24T03:34:47.426Z,65.03
2024-04-24T03:35:47.342Z,64.84
2024-04-24T03:36:47.343Z,64.76
2024-04-24T03:37:47.358Z,64.57
2024-04-24T03:38:47.356Z,64.74
2024-04-24T03:39:47.331Z,65.08
2024-04-24T03:40:47.353Z,64.77
2024-04-24T03:41:47.344Z,64.58
2024-04-24T03:42:47.343Z,64.58
2024-04-24T03:43:47.413Z,64.34
2024-04-24T03:44:47.362Z,64.36
2024-04-24T03:45:47.417Z,64.29
2024-04-24T03:46:47.380Z,64.34
2024-04-24T03:47:47.462Z,64.63
2024-04-24T03:48:47.473Z,64.85
2024-04-24T03:49:47.370Z,64.93
2024-04-24T03:50:47.355Z,64.55
2024-04-24T03:51:47.386Z,64.60
2024-04-24T03:52:47.410Z,64.25
2024-04-24T03:53:47.387Z,63.50
2024-04-24T03:54:47.403Z,63.44
2024-04-24T03:55:47.423Z,63.17
2024-04-24T03:56:47.387Z,63.36
2024-04-24T03:57:47.410Z,63.28
2024-04-24T03:58:47.446Z,63.64
2024-04-24T03:59:47.417Z,63.69
2024-04-24T04:00:47.401Z,63.26
2024-04-24T04:01:47.458Z,63.39
2024-04-24T04:02:47.785Z,63.33
2024-04-24T04:03:47.424Z,62.95
2024-04-24T04:04:47.435Z,63.12
2024-04-24T04:05:47.377Z,62.83
2024-04-24T04:06:47.414Z,63.07
2024-04-24T04:07:47.432Z,63.81
2024-04-24T04:08:47.407Z,64.30
2024-04-24T04:09:47.377Z,64.21
2024-04-24T04:10:47.483Z,64.53
2024-04-24T04:11:47.507Z,64.54
2024-04-24T04:12:47.410Z,64.27
2024-04-24T04:13:47.449Z,64.13
2024-04-24T04:14:47.409Z,64.02
2024-04-24T04:15:47.428Z,64.19
2024-04-24T04:16:47.465Z,63.80
2024-04-24T04:17:47.588Z,64.00
2024-04-24T04:18:47.478Z,64.37
2024-04-24T04:19:47.441Z,63.58
2024-04-24T04:20:47.402Z,63.79
2024-04-24T04:21:47.418Z,63.62
2024-04-24T04:22:47.487Z,63.53
2024-04-24T04:23:47.417Z,63.97
2024-04-24T04:24:47.404Z,63.59
2024-04-24T04:25:47.493Z,63.80
2024-04-24T04:26:47.433Z,63.62
2024-04-24T04:27:47.431Z,63.87
2024-04-24T04:28:47.424Z,64.32
2024-04-24T04:29:47.424Z,64.31
2024-04-24T04:30:47.415Z,64.40
2024-04-24T04:31:47.468Z,64.43
2024-04-24T04:32:47.472Z,64.94
2024-04-24T04:33:47.663Z,65.00
2024-04-24T04:34:47.494Z,64.96
2024-04-24T04:35:47.477Z,65.12
2024-04-24T04:36:47.516Z,64.94
2024-04-24T04:37:47.591Z,65.60
2024-04-24T04:38:47.577Z,65.33
2024-04-24T04:39:47.593Z,65.73
2024-04-24T04:40:47.628Z,66.14
2024-04-24T04:41:47.611Z,65.77
2024-04-24T04:42:47.691Z,66.09
2024-04-24T04:43:47.743Z,66.41
2024-04-24T04:44:47.726Z,66.16
2024-04-24T04:45:47.786Z,66.45
2024-04-24T04:46:47.918Z,66.38
2024-04-24T04:47:48.055Z,66.67
2024-04-24T04:48:55.464Z,66.91
2024-04-24T04:49:55.431Z,66.97
2024-04-24T04:50:55.397Z,67.40
2024-04-24T04:51:55.401Z,67.67
2024-04-24T04:52:55.415Z,67.88
2024-04-24T04:53:55.394Z,67.64
2024-04-24T04:54:55.399Z,67.23
2024-04-24T04:55:55.439Z,67.19
2024-04-24T04:56:55.406Z,67.57
2024-04-24T04:58:00.437Z,67.20
2024-04-24T04:58:55.433Z,67.27
2024-04-24T04:59:55.406Z,66.72
2024-04-24T05:00:55.450Z,66.49
2024-04-24T05:01:57.993Z,66.95
2024-04-24T05:02:55.454Z,66.66
2024-04-24T05:03:55.451Z,66.78
2024-04-24T05:04:55.430Z,66.48
2024-04-24T05:05:55.402Z,66.28
2024-04-24T05:06:55.431Z,66.60
2024-04-24T05:07:55.460Z,66.05
2024-04-24T05:08:55.449Z,66.09
2024-04-24T05:09:55.424Z,66.00
2024-04-24T05:10:55.476Z,66.99
2024-04-24T05:11:55.533Z,66.08
2024-04-24T05:12:55.417Z,65.93
2024-04-24T05:13:55.467Z,65.53
2024-04-24T05:14:55.436Z,65.51
2024-04-24T05:15:55.434Z,65.06
2024-04-24T05:16:55.517Z,64.61
2024-04-24T05:17:55.538Z,64.29
2024-04-24T05:18:55.480Z,64.23
2024-04-24T05:19:55.468Z,64.15
2024-04-24T05:20:55.440Z,64.16
2024-04-24T05:21:55.441Z,64.24
2024-04-24T05:22:55.482Z,64.26
2024-04-24T05:23:55.470Z,64.22
2024-04-24T05:24:55.440Z,63.91
2024-04-24T05:25:55.461Z,63.92
2024-04-24T05:26:55.440Z,63.82
2024-04-24T05:27:55.443Z,63.75
2024-04-24T05:28:55.490Z,64.08
2024-04-24T05:29:55.462Z,64.26
2024-04-24T05:30:55.482Z,63.99
2024-04-24T05:31:55.500Z,63.77
2024-04-24T05:32:55.583Z,63.82
2024-04-24T05:33:55.523Z,63.52
2024-04-24T05:34:55.474Z,63.17
2024-04-24T05:35:55.448Z,63.31
2024-04-24T05:36:55.497Z,63.70
2024-04-24T05:37:55.466Z,63.31
2024-04-24T05:38:55.463Z,63.49
2024-04-24T05:39:55.528Z,63.70
2024-04-24T05:40:55.611Z,63.75
2024-04-24T05:41:55.625Z,63.81
2024-04-24T05:42:55.686Z,63.86
2024-04-24T05:43:55.851Z,63.59
2024-04-24T05:44:55.819Z,63.35
2024-04-24T05:45:55.878Z,63.44
2024-04-24T05:46:55.968Z,63.21
2024-04-24T05:47:56.044Z,63.44
2024-04-24T05:48:56.051Z,63.76
2024-04-24T05:49:56.068Z,63.98
2024-04-24T05:50:56.137Z,64.69
2024-04-24T05:51:56.160Z,64.67
2024-04-24T05:52:56.229Z,65.10
2024-04-24T05:53:56.344Z,64.81
2024-04-24T05:54:56.252Z,64.91
2024-04-24T05:55:56.312Z,64.92
2024-04-24T05:56:56.318Z,64.74
2024-04-24T05:57:56.338Z,64.72
2024-04-24T05:58:56.420Z,64.65
2024-04-24T05:59:56.392Z,64.80
2024-04-24T06:00:56.431Z,64.78
2024-04-24T06:01:56.426Z,64.48
2024-04-24T06:02:56.496Z,64.46
2024-04-24T06:03:56.533Z,64.18
2024-04-24T06:04:56.827Z,64.11
2024-04-24T06:05:56.657Z,64.39
2024-04-24T06:06:56.746Z,64.36
2024-04-24T06:09:47.997Z,63.72
2024-04-24T06:10:11.019Z,64.47
2024-04-24T06:11:11.121Z,64.61
2024-04-24T06:12:11.095Z,64.60
2024-04-24T06:13:10.929Z,64.22
2024-04-24T06:14:11.060Z,63.94
2024-04-24T06:15:10.944Z,63.86
2024-04-24T06:16:10.949Z,63.48
2024-04-24T06:17:10.998Z,63.78
2024-04-24T06:18:11.029Z,63.99
2024-04-24T06:19:10.936Z,63.75
2024-04-24T06:20:11.005Z,64.66
2024-04-24T06:21:10.930Z,64.12
2024-04-24T06:22:10.942Z,64.45
2024-04-24T06:23:10.987Z,65.84
2024-04-24T06:24:12.706Z,66.15
2024-04-24T06:25:10.964Z,66.42
2024-04-24T06:26:10.962Z,66.26
2024-04-24T06:27:10.972Z,66.64
2024-04-24T06:28:10.971Z,65.98
2024-04-24T06:31:49.399Z,66.54
2024-04-24T06:32:19.744Z,66.38
2024-04-24T06:37:17.175Z,67.38
2024-04-24T06:39:23.715Z,66.55
2024-04-24T06:43:34.580Z,65.28
2024-04-24T06:44:07.571Z,65.59
2024-04-24T06:45:07.538Z,65.90
2024-04-24T06:46:07.567Z,65.69
2024-04-24T06:47:07.606Z,65.82
2024-04-24T06:48:07.756Z,65.32
2024-04-24T06:50:41.925Z,65.54
2024-04-24T06:51:11.909Z,65.22
2024-04-24T06:52:40.391Z,65.13
2024-04-24T06:53:34.831Z,64.71
2024-04-24T06:56:51.709Z,64.61
2024-04-24T06:57:20.927Z,63.85
2024-04-24T06:58:49.576Z,64.02
2024-04-24T07:02:01.776Z,63.29
2024-04-24T07:02:29.425Z,63.74
2024-04-24T07:03:31.587Z,63.64
2024-04-24T07:04:29.455Z,63.39
2024-04-24T07:05:54.130Z,64.14
2024-04-24T07:06:29.482Z,64.10
2024-04-24T07:07:56.573Z,64.58
2024-04-24T07:08:29.618Z,64.27
2024-04-24T07:09:29.507Z,64.07
2024-04-24T07:10:29.483Z,63.86
2024-04-24T07:11:29.570Z,63.59
2024-04-24T07:12:29.619Z,64.39
2024-04-24T07:13:56.583Z,64.60
2024-04-24T07:14:29.544Z,65.12
2024-04-24T07:15:29.492Z,64.34
2024-04-24T07:16:29.486Z,64.06
2024-04-24T07:31:18.945Z,62.93
2024-04-24T07:31:51.909Z,63.37
2024-04-24T07:32:51.898Z,63.69
2024-04-24T07:33:51.906Z,63.44
2024-04-24T07:34:51.913Z,62.96
2024-04-24T07:35:51.881Z,63.45
2024-04-24T07:36:51.882Z,62.73
2024-04-24T07:37:51.918Z,62.87
2024-04-24T07:38:51.892Z,63.07
2024-04-24T07:39:51.909Z,62.82
2024-04-24T07:40:51.933Z,62.49
2024-04-24T07:41:51.904Z,62.52
2024-04-24T07:42:51.907Z,62.05
2024-04-24T07:43:51.908Z,62.61
2024-04-24T07:44:51.903Z,63.67
2024-04-24T07:45:51.915Z,63.58
2024-04-24T07:46:51.946Z,64.04
2024-04-24T07:49:23.301Z,63.75
2024-04-24T07:52:36.029Z,63.83
2024-04-24T07:53:04.979Z,63.78
2024-04-24T07:54:05.663Z,64.57
2024-04-24T07:55:04.987Z,63.91
2024-04-24T07:56:05.027Z,63.16
2024-04-24T07:57:04.984Z,63.71
2024-04-24T07:58:04.959Z,64.24
2024-04-24T07:59:04.959Z,64.15
2024-04-24T08:00:04.942Z,64.22
2024-04-24T08:01:05.046Z,63.57
2024-04-24T08:02:05.074Z,63.54
2024-04-24T08:03:05.067Z,63.55
2024-04-24T08:04:05.011Z,63.36
2024-04-24T08:05:04.982Z,63.38
2024-04-24T08:06:04.975Z,63.42
2024-04-24T08:07:04.957Z,63.52
2024-04-24T08:08:04.990Z,63.96
2024-04-24T08:09:05.029Z,63.52
2024-04-24T08:10:05.010Z,63.85
2024-04-24T08:11:06.071Z,64.20
2024-04-24T08:12:08.526Z,64.12
2024-04-24T08:13:04.971Z,64.05
2024-04-24T08:14:05.016Z,64.02
2024-04-24T08:15:04.971Z,64.48
2024-04-24T08:16:05.008Z,65.16
2024-04-24T08:17:05.033Z,65.70
2024-04-24T08:18:04.983Z,65.00
2024-04-24T08:19:04.991Z,64.99
2024-04-24T08:20:31.113Z,65.16
2024-04-24T08:21:04.990Z,64.98
2024-04-24T08:26:49.404Z,66.26
2024-04-24T08:27:22.377Z,65.92
2024-04-24T08:28:32.739Z,64.96
2024-04-24T08:29:24.660Z,65.76
2024-04-24T08:35:10.994Z,67.29
2024-04-24T08:35:39.798Z,67.77
2024-04-24T08:36:42.388Z,68.27
2024-04-24T08:37:39.776Z,69.08
2024-04-24T08:38:39.790Z,69.05
2024-04-24T08:39:39.820Z,68.31
2024-04-24T08:40:39.803Z,67.83
2024-04-24T08:41:39.804Z,66.74
2024-04-24T08:42:39.817Z,66.16
2024-04-24T08:43:39.822Z,65.64
2024-04-24T08:44:39.841Z,66.31
2024-04-24T08:45:39.836Z,67.48
2024-04-24T08:46:39.800Z,67.70
2024-04-24T08:47:39.969Z,66.69
2024-04-24T08:48:39.888Z,66.55
2024-04-24T08:49:39.828Z,65.84
2024-04-24T08:50:39.812Z,65.20
2024-04-24T08:51:39.807Z,64.51
2024-04-24T08:52:39.817Z,64.60
2024-04-24T08:53:39.830Z,65.23
2024-04-24T08:54:39.818Z,64.56
2024-04-24T08:55:39.833Z,64.29
2024-04-24T08:56:39.820Z,64.79
2024-04-24T08:57:39.820Z,65.26
2024-04-24T08:58:39.848Z,65.67
2024-04-24T08:59:39.948Z,67.02
2024-04-24T09:00:39.857Z,66.48
2024-04-24T09:01:39.820Z,66.41
2024-04-24T09:02:39.955Z,68.17
2024-04-24T09:03:39.934Z,67.30
2024-04-24T09:04:39.959Z,66.84
2024-04-24T09:05:39.860Z,66.86
2024-04-24T09:06:39.828Z,67.74
2024-04-24T09:07:39.826Z,67.64
2024-04-24T09:08:39.841Z,66.37
2024-04-24T09:09:39.843Z,67.62
2024-04-24T09:10:39.828Z,67.01
2024-04-24T09:11:39.960Z,67.00
2024-04-24T09:12:39.910Z,66.42
2024-04-24T09:13:39.860Z,66.05
2024-04-24T09:14:39.904Z,65.40
2024-04-24T09:15:39.992Z,66.06
2024-04-24T09:16:40.047Z,65.30
2024-04-24T09:17:40.241Z,65.73
2024-04-24T09:18:40.352Z,65.34
2024-04-24T09:19:40.242Z,65.09
2024-04-24T09:20:40.286Z,64.70
2024-04-24T09:21:40.266Z,65.17
2024-04-24T09:22:40.315Z,64.36
2024-04-24T09:23:40.361Z,64.59
2024-04-24T09:24:40.415Z,64.01
2024-04-24T09:25:40.465Z,64.36
2024-04-24T09:26:40.546Z,64.59
2024-04-24T09:27:40.585Z,64.70
2024-04-24T09:28:40.631Z,64.09
2024-04-24T09:29:40.740Z,62.73
2024-04-24T09:30:40.881Z,63.19
2024-04-24T09:31:40.748Z,64.56
2024-04-24T09:32:40.844Z,62.97
2024-04-24T09:33:40.872Z,63.71
2024-04-24T09:34:40.974Z,64.39
2024-04-24T09:35:40.900Z,65.75
2024-04-24T09:36:43.043Z,64.69
2024-04-24T09:37:41.038Z,64.38
2024-04-24T09:38:41.019Z,65.56
2024-04-24T09:39:41.081Z,65.81
2024-04-24T09:40:41.076Z,64.41
2024-04-24T09:41:41.152Z,63.83
2024-04-24T09:42:41.157Z,64.09
2024-04-24T09:43:41.225Z,66.84
2024-04-24T09:44:41.362Z,64.99
2024-04-24T09:45:41.290Z,65.52
2024-04-24T09:46:41.299Z,65.13
2024-04-24T09:47:41.487Z,65.48
2024-04-24T09:48:41.525Z,64.56
2024-04-24T09:49:41.469Z,63.04
2024-04-24T09:50:41.568Z,62.57
2024-04-24T09:51:41.523Z,64.13
2024-04-24T09:52:41.663Z,63.12
2024-04-24T09:53:41.577Z,62.83
2024-04-24T09:54:41.620Z,62.99
2024-04-24T09:55:41.680Z,61.90
2024-04-24T09:56:41.703Z,62.68
2024-04-24T09:57:41.738Z,63.73
2024-04-24T10:00:11.331Z,63.73
2024-04-24T10:00:46.174Z,63.02
2024-04-24T10:01:46.161Z,65.39
2024-04-24T10:02:46.357Z,63.81
2024-04-24T10:03:46.164Z,65.18
2024-04-24T10:04:46.234Z,65.27
2024-04-24T10:05:51.909Z,63.71
2024-04-24T10:06:47.229Z,62.58
2024-04-24T10:07:46.323Z,63.33
2024-04-24T10:08:46.157Z,64.84
2024-04-24T10:09:46.168Z,63.69
2024-04-24T10:10:46.188Z,64.22
2024-04-24T10:11:46.227Z,62.71
2024-04-24T10:12:46.199Z,61.58
2024-04-24T10:13:46.173Z,59.96
2024-04-24T10:14:46.198Z,59.50
2024-04-24T10:15:46.918Z,59.11
2024-04-24T10:16:46.154Z,59.63
2024-04-24T10:17:46.440Z,58.39
2024-04-24T10:19:46.219Z,58.95
2024-04-24T10:20:46.243Z,57.06
2024-04-24T10:21:46.212Z,56.29
2024-04-24T10:22:46.295Z,56.38
2024-04-24T10:23:46.339Z,56.27
2024-04-24T10:24:46.323Z,57.25
2024-04-24T10:25:46.391Z,57.20
2024-04-24T10:26:46.354Z,57.49
2024-04-24T10:27:46.400Z,55.37
2024-04-24T10:28:49.556Z,56.83
2024-04-24T10:29:46.430Z,55.10
2024-04-24T10:30:46.439Z,56.86
2024-04-24T10:32:15.048Z,56.38
2024-04-24T10:37:34.912Z,56.91
2024-04-24T10:38:03.826Z,54.17
2024-04-24T10:39:03.824Z,53.96
2024-04-24T10:40:03.824Z,53.95
2024-04-24T10:41:03.878Z,53.50
2024-04-24T10:42:03.840Z,52.79
2024-04-24T10:50:13.951Z,50.55
2024-04-24T10:50:46.442Z,52.37
2024-04-24T10:52:17.639Z,50.26
2024-04-24T10:52:46.486Z,50.23
2024-04-24T10:53:55.616Z,50.57
2024-04-24T10:56:27.538Z,49.88
2024-04-24T10:56:51.874Z,49.56
2024-04-24T10:57:50.841Z,49.99
2024-04-24T10:58:50.995Z,47.50
2024-04-24T10:59:54.030Z,48.23
2024-04-24T11:00:50.915Z,49.79
2024-04-24T11:03:23.690Z,48.11
2024-04-24T11:15:45.321Z,44.36
2024-04-24T11:16:12.443Z,45.64
2024-04-24T11:26:20.574Z,47.02
2024-04-24T11:27:20.720Z,47.22
2024-04-24T11:28:20.668Z,45.63
2024-04-24T11:31:55.576Z,45.16
2024-04-24T11:32:56.643Z,43.39
2024-04-24T11:33:29.506Z,46.23
2024-04-24T11:35:11.441Z,45.89
2024-04-24T11:35:29.456Z,40.53
2024-04-24T11:36:29.385Z,41.84
2024-04-24T11:37:29.391Z,41.36
2024-04-24T11:38:29.383Z,43.49
2024-04-24T11:39:29.367Z,44.93
2024-04-24T11:40:29.368Z,40.96
2024-04-24T11:41:29.415Z,41.91
2024-04-24T11:42:29.367Z,44.14
2024-04-24T11:43:29.388Z,44.72
2024-04-24T11:44:29.477Z,45.47
2024-04-24T11:45:29.381Z,45.63
2024-04-24T11:46:29.421Z,46.21
2024-04-24T11:47:29.471Z,44.75
2024-04-24T11:48:40.333Z,45.58
2024-04-24T11:49:30.435Z,43.86
2024-04-24T11:50:29.474Z,45.19
2024-04-24T11:51:29.403Z,41.23
2024-04-24T11:52:29.444Z,43.72
2024-04-24T11:53:29.425Z,43.29
2024-04-24T11:54:29.408Z,43.99
2024-04-24T11:55:29.412Z,43.32
2024-04-24T11:56:29.475Z,41.25
2024-04-24T11:57:29.404Z,42.53
2024-04-24T11:58:29.389Z,43.31
2024-04-24T11:59:29.596Z,42.31
2024-04-24T12:00:29.422Z,42.14
2024-04-24T12:01:30.885Z,43.50
2024-04-24T12:02:29.521Z,41.80
2024-04-24T12:03:29.536Z,41.44
2024-04-24T12:04:29.605Z,41.87
2024-04-24T12:05:29.726Z,43.22
2024-04-24T12:06:29.627Z,45.19
2024-04-24T12:07:29.680Z,44.15
2024-04-24T12:08:29.761Z,43.37
2024-04-24T12:09:29.795Z,42.00
2024-04-24T12:10:29.840Z,43.97
2024-04-24T12:11:29.921Z,43.65
2024-04-24T12:12:30.891Z,44.69
2024-04-24T12:13:31.383Z,40.63
2024-04-24T12:14:30.048Z,42.66
2024-04-24T12:15:30.041Z,41.90
2024-04-24T12:16:30.068Z,40.99
2024-04-24T12:17:30.211Z,42.58
2024-04-24T12:18:31.897Z,43.62
2024-04-24T12:19:30.200Z,43.62
2024-04-24T12:20:30.263Z,42.77
2024-04-24T12:21:30.289Z,43.20
2024-04-24T12:22:30.369Z,43.70
2024-04-24T12:23:30.379Z,44.91
2024-04-24T12:24:30.434Z,44.54
2024-04-24T12:25:30.467Z,46.17
2024-04-24T12:26:30.600Z,43.97
2024-04-24T12:27:30.548Z,46.12
2024-04-24T12:28:30.608Z,46.10
2024-04-24T12:29:30.699Z,46.29
2024-04-24T12:30:30.680Z,48.32
2024-04-24T12:31:30.714Z,47.23
2024-04-24T12:32:30.898Z,47.87
2024-04-24T12:33:30.911Z,49.57
2024-04-24T12:34:30.891Z,47.48
2024-04-24T12:35:30.911Z,47.47
2024-04-24T12:36:30.959Z,47.21
2024-04-24T12:37:30.997Z,46.59
2024-04-24T12:38:31.066Z,46.93
2024-04-24T12:39:31.093Z,47.06
2024-04-24T12:40:31.159Z,48.22
2024-04-24T12:41:31.207Z,47.60
2024-04-24T12:42:31.206Z,47.43
2024-04-24T12:43:32.251Z,47.83
2024-04-24T12:44:31.316Z,45.52
2024-04-24T12:45:31.338Z,47.05
2024-04-24T12:46:31.350Z,45.85
2024-04-24T12:47:31.476Z,46.63
2024-04-24T12:48:31.493Z,46.11
2024-04-24T12:49:31.465Z,44.91
2024-04-24T12:50:31.581Z,45.29
2024-04-24T12:51:31.580Z,45.38
2024-04-24T12:52:31.597Z,44.09
2024-04-24T12:53:31.645Z,44.92
2024-04-24T12:54:31.665Z,45.41
2024-04-24T12:55:31.722Z,45.42
2024-04-24T12:56:31.755Z,46.03
2024-04-24T12:57:31.782Z,45.30
2024-04-24T12:58:31.802Z,43.66
2024-04-24T12:59:31.919Z,45.63
2024-04-24T13:00:31.909Z,45.16
2024-04-24T13:01:31.922Z,44.43
2024-04-24T13:02:32.061Z,44.70
2024-04-24T13:03:33.128Z,44.43
2024-04-24T13:04:33.437Z,44.40
2024-04-24T13:05:32.152Z,44.25
2024-04-24T13:06:32.137Z,44.92
2024-04-24T13:07:32.193Z,44.10
2024-04-24T13:08:32.275Z,44.17
2024-04-24T13:09:32.234Z,45.08
2024-04-24T13:10:32.322Z,46.10
2024-04-24T13:11:32.380Z,45.21
2024-04-24T13:12:32.404Z,44.49
2024-04-24T13:13:32.423Z,46.99
2024-04-24T13:14:32.566Z,45.61
2024-04-24T13:15:32.533Z,45.51
2024-04-24T13:16:32.541Z,45.27
2024-04-24T13:17:32.714Z,44.68
2024-04-24T13:18:32.754Z,44.69
2024-04-24T13:19:32.689Z,44.18
2024-04-24T13:20:32.811Z,43.52
2024-04-24T13:21:32.687Z,42.64
2024-04-24T13:22:32.724Z,43.48
2024-04-24T13:23:32.828Z,43.89
2024-04-24T13:24:32.858Z,43.60
2024-04-24T13:25:32.908Z,43.82
2024-04-24T13:26:32.951Z,44.44
2024-04-24T13:27:32.966Z,42.77
2024-04-24T13:28:33.023Z,41.85
2024-04-24T13:29:33.113Z,44.34
2024-04-24T13:30:33.126Z,44.11
2024-04-24T13:31:33.197Z,43.77
2024-04-24T13:32:33.340Z,43.70
2024-04-24T13:33:33.336Z,44.33
2024-04-24T13:34:34.404Z,43.33
2024-04-24T13:35:33.424Z,43.67
2024-04-24T13:36:33.441Z,42.78
2024-04-24T13:37:33.486Z,43.41
2024-04-24T13:38:33.549Z,43.44
2024-04-24T13:39:33.564Z,44.22
2024-04-24T13:40:33.561Z,44.57
2024-04-24T13:41:36.451Z,45.15
2024-04-24T13:42:33.593Z,44.80
2024-04-24T13:43:33.590Z,44.00
2024-04-24T13:44:33.612Z,43.89
2024-04-24T13:45:33.607Z,42.78
2024-04-24T13:46:33.624Z,42.98
2024-04-24T13:47:33.693Z,42.52
2024-04-24T13:48:35.311Z,43.08
2024-04-24T13:49:33.604Z,41.64
2024-04-24T13:50:33.672Z,42.79
2024-04-24T13:51:33.607Z,39.94
2024-04-24T13:52:33.604Z,41.07
2024-04-24T13:53:33.699Z,38.87
2024-04-24T13:54:33.602Z,38.97
2024-04-24T13:55:33.604Z,38.49
2024-04-24T13:56:33.728Z,39.22
2024-04-24T13:57:34.643Z,40.33
2024-04-24T13:58:33.601Z,40.55
2024-04-24T13:59:33.642Z,41.28
2024-04-24T14:00:33.623Z,42.08
2024-04-24T14:01:33.609Z,40.99
2024-04-24T14:02:33.900Z,41.02
2024-04-24T14:03:33.699Z,40.16
2024-04-24T14:04:33.728Z,40.25
2024-04-24T14:05:33.705Z,40.25
2024-04-24T14:06:33.640Z,40.54
2024-04-24T14:07:33.640Z,40.16
2024-04-24T14:08:33.645Z,39.64
2024-04-24T14:09:33.652Z,40.30
2024-04-24T14:10:33.637Z,39.31
2024-04-24T14:11:33.706Z,39.13
2024-04-24T14:12:33.651Z,38.69